Fort Lauderdale, FL (33310)

6:56 AM EST on February 27, 2015 (GMT -0500)
River Reach in SW Ft. Lauderdale | Change Station
CLOSE
Current Station
Personal Weather Station
Location: Ft.Lauderdale, FL
Elevation: 74 ft
Nearby Weather Stations

Elev 74 ft 26.11 °N, 80.16 °W | Updated 2 minutes ago

Mostly Cloudy
Mostly Cloudy
66.7 °F
Feels Like 66.7 °F
N
6.0
Wind Variable Wind from North
Gusts 10.0 mph

Today
High -- | Low -- °F
--% Chance of Precip.
Yesterday
High -- | Low -- °F
Precip. -- in
6:46 AM 6:20 PM
Waxing Gibbous, 68% visible
Pressure 30.03 in
Visibility 10.0 miles
Clouds Few 2300 ft
Scattered Clouds 3300 ft
Overcast 10000 ft
Dew Point 66 °F
Humidity 96%
Rainfall 0.00 in
Snow Depth Not available.
UV 0 out of 12
Pollen 9.90 out of 12
Air Quality Not available.
Flu Activity Not available.
SPECI KFLL 271127Z 35006KT 10SM FEW023 SCT033 OVC100 19/17 A3003 RMK AO2 T01890172

More Conditions Fewer Conditions

Pressure 30.03 in
Visibility 10.0 miles
Clouds Few 2300 ft
Scattered Clouds 3300 ft
Overcast 10000 ft
Dew Point 66 °F
Humidity 96%
Rainfall 0.00 in
Snow Depth Not available.
UV 0 out of 12
Pollen 9.90 out of 12
Air Quality Not available.
Flu Activity Not available.
SPECI KFLL 271127Z 35006KT 10SM FEW023 SCT033 OVC100 19/17 A3003 RMK AO2 T01890172

More Conditions Fewer Conditions

10-Day Weather Forecast

Almanac

Astronomy

Feb. 27, 2015 Rise Set
Actual Time
Civil Twilight
Nautical Twilight
Astronomical Twilight
Moon
Length of Visible Light
Length of Day
Tomorrow will be .
, % of the Moon is Illuminated

Today's Extremes

State Highs State Lows

Community

WunderPhotos

Upload Photos

1,800,656 photos uploaded!

WunderBlogs® & News

Nearby

Air Quality

  Air Quality AQ Index Pollutant
Not available.

Snow Depth

Station Depth Elevation

Earthquake Activity

City Distance Mag. Time & Date
Minimum magnitude displayed is 2.5.

Coastal Water Temperatures

Place Temperature

Nearby Weather Stations